Aqua, PA

5:37 AM EDT on October 22, 2014 (GMT -0400)
Chambersburg | Change Station
CLOSE
Current Station
Personal Weather Station
Location: Chambersburg, PA
Elevation: 714 ft
Nearby Weather Stations

Elev 714 ft 39.96 °N, 77.66 °W | Updated 2 seconds ago

Overcast
Overcast
52.2 °F
Feels Like 52.2 °F
N
8.3
Wind Variable Wind from North
Gusts 11.4 mph

Today
High -- | Low -- °F
--% Chance of Precip.
Yesterday
High -- | Low -- °F
Precip. -- in
7:28 AM 6:21 PM
Waning Crescent, 2% visible
Pressure 29.95 in
Visibility 10.0 miles
Clouds Few 6000 ft
Few 7500 ft
Overcast 9500 ft
Dew Point 49 °F
Humidity 89%
Rainfall 0.00 in
Snow Depth Not available.
UV 0 out of 12
Pollen .30 out of 12
Air Quality Not available.
Flu Activity Sporadic
METAR KHGR 220853Z AUTO 34006KT 10SM FEW060 FEW075 OVC095 11/09 A2992 RMK AO2 SLP141 T01110089 53003 TSNO

More Conditions Fewer Conditions

Pressure 29.95 in
Visibility 10.0 miles
Clouds Few 6000 ft
Few 7500 ft
Overcast 9500 ft
Dew Point 49 °F
Humidity 89%
Rainfall 0.00 in
Snow Depth Not available.
UV 0 out of 12
Pollen .30 out of 12
Air Quality Not available.
Flu Activity Sporadic
METAR KHGR 220853Z AUTO 34006KT 10SM FEW060 FEW075 OVC095 11/09 A2992 RMK AO2 SLP141 T01110089 53003 TSNO

More Conditions Fewer Conditions

10-Day Weather Forecast

Almanac

Astronomy

Oct. 22, 2014 Rise Set
Actual Time 7:28 AM EDT 6:21 PM EDT
Civil Twilight 7:00 AM EDT 6:48 PM EDT
Nautical Twilight 6:29 AM EDT 7:20 PM EDT
Astronomical Twilight 5:58 AM EDT 7:51 PM EDT
Moon 6:08 AM EDT 5:46 PM EDT
Length of Visible Light 11h 47m
Length of Day
10h 52m
Tomorrow will be 2m 27s shorter.
Waning Crescent, 2% of the Moon is Illuminated
Today
Waning Crescent
Oct 23
New
Oct 30
First Quarter
Nov 6
Full
Nov 14
Last Quarter

Today's Extremes

State Highs State Lows

Community

WunderPhotos

Upload Photos

1,763,900 photos uploaded!

Nearby

Snow Depth

Station Depth Elevation
No new snow has been reported.

Earthquake Activity

City Distance Mag. Time & Date
No recent earthquake activity has been reported nearby.
Minimum magnitude displayed is 2.5.

Coastal Water Temperatures

Place Temperature
No Stations Reporting

Nearby Weather Stations